Floyd, New York
Current Conditions -  °F | °C
As of 2:53 AM on Sunday 21 Dec 2014 (Local Time) from KRME Reporting Station
Overcast Overcast  
Wind Chill: 19°   Ceiling: 3100
Heat Index: 25°   Visibility: 10mi
Dew Point: 20°   Wind: 5mph
Humidity: 81%   Direction: 100°E
Pressure: 30.31"   Gusts: NA
Location:  43.2466°N, 75.4624°W
Report Text: KRME 210753Z AUTO 10004KT 10SM OVC031 M04/M07 A3031 RMK AO2 SLP270 T10391067
Loading
Personal Weather Stations






























Interactive Weather Map New forecast layout! Learn more

10-Day Weather Forecast

Advertisements
Track Severe Weather on mobile